createdAt,value
2022-07-31T00:01:16.859Z,99082.60
2022-07-31T00:03:43.488Z,99077.88
2022-07-31T00:06:11.935Z,99077.54
2022-07-31T00:08:38.296Z,99070.65
2022-07-31T00:11:04.700Z,99071.98
2022-07-31T00:13:57.952Z,99073.98
2022-07-31T00:16:18.986Z,99079.84
2022-07-31T00:18:45.468Z,99074.29
2022-07-31T00:21:15.080Z,99071.90
2022-07-31T00:23:42.887Z,99077.55
2022-07-31T00:26:11.175Z,99076.87
2022-07-31T00:28:38.211Z,99072.38
2022-07-31T00:31:04.630Z,99071.00
2022-07-31T00:33:34.402Z,99067.22
2022-07-31T00:36:01.216Z,99071.44
2022-07-31T00:38:28.152Z,99068.74
2022-07-31T00:40:56.567Z,99075.21
2022-07-31T00:43:27.456Z,99072.73
2022-07-31T00:45:59.388Z,99073.46
2022-07-31T00:48:27.735Z,99078.40
2022-07-31T00:50:57.289Z,99079.73
2022-07-31T00:53:24.047Z,99081.77
2022-07-31T00:55:56.945Z,99079.30
2022-07-31T00:58:35.483Z,99076.05
2022-07-31T01:01:05.302Z,99071.48
2022-07-31T01:03:35.174Z,99077.67
2022-07-31T01:06:05.344Z,99078.01
2022-07-31T01:08:33.355Z,99076.27
2022-07-31T01:11:21.126Z,99073.28
2022-07-31T01:13:53.909Z,99075.86
2022-07-31T01:16:24.061Z,99072.71
2022-07-31T01:18:55.321Z,99079.63
2022-07-31T01:22:33.322Z,99072.30
2022-07-31T01:25:09.135Z,99073.35
2022-07-31T01:27:58.159Z,99074.94
2022-07-31T01:31:05.003Z,99077.80
2022-07-31T01:33:46.212Z,99072.21
2022-07-31T01:36:24.374Z,99073.71
2022-07-31T01:38:55.215Z,99077.73
2022-07-31T01:41:28.308Z,99073.91
2022-07-31T01:43:57.709Z,99072.58
2022-07-31T01:46:27.278Z,99067.50
2022-07-31T01:48:55.822Z,99066.19
2022-07-31T01:51:26.997Z,99065.77
2022-07-31T01:53:55.236Z,99064.60
2022-07-31T01:56:24.004Z,99066.11
2022-07-31T01:58:51.948Z,99067.42
2022-07-31T02:01:39.786Z,99068.52
2022-07-31T02:04:10.456Z,99066.58
2022-07-31T02:06:40.422Z,99066.10
2022-07-31T02:09:08.154Z,99062.07
2022-07-31T02:11:35.724Z,99057.15
2022-07-31T02:14:21.145Z,99058.61
2022-07-31T02:16:49.464Z,99054.20
2022-07-31T02:19:23.473Z,99046.80
2022-07-31T02:21:50.060Z,99049.48
2022-07-31T02:24:17.161Z,99044.95
2022-07-31T02:26:46.167Z,99050.21
2022-07-31T02:29:19.431Z,99052.90
2022-07-31T02:32:03.062Z,99048.48
2022-07-31T02:34:34.323Z,99041.94
2022-07-31T02:37:02.553Z,99041.14
2022-07-31T02:39:40.259Z,99044.78
2022-07-31T02:42:20.922Z,99040.28
2022-07-31T02:44:48.465Z,99035.39
2022-07-31T02:47:15.740Z,99032.72
2022-07-31T02:49:44.779Z,99031.30
2022-07-31T02:52:12.561Z,99032.69
2022-07-31T02:54:40.683Z,99030.20
2022-07-31T02:57:09.259Z,99030.16
2022-07-31T02:59:40.727Z,99025.48
2022-07-31T03:02:07.656Z,99019.48
2022-07-31T03:04:39.156Z,99017.47
2022-07-31T03:07:05.632Z,99012.23
2022-07-31T03:09:33.072Z,99014.52
2022-07-31T03:12:25.741Z,99018.86
2022-07-31T03:14:53.985Z,99016.96
2022-07-31T03:17:22.893Z,99018.77
2022-07-31T03:20:08.798Z,99017.42
2022-07-31T03:22:39.171Z,99017.13
2022-07-31T03:25:08.068Z,99015.14
2022-07-31T03:27:35.045Z,99016.08
2022-07-31T03:30:02.309Z,99012.08
2022-07-31T03:32:29.960Z,99006.98
2022-07-31T03:34:57.202Z,99009.04
2022-07-31T03:37:23.588Z,99011.15
2022-07-31T03:39:50.352Z,99013.52
2022-07-31T03:42:19.254Z,99010.57
2022-07-31T03:44:47.661Z,99010.05
2022-07-31T03:47:16.499Z,99008.89
2022-07-31T03:49:44.179Z,99003.11
2022-07-31T03:52:12.501Z,99003.77
2022-07-31T03:54:42.069Z,99004.33
2022-07-31T03:57:19.354Z,99002.85
2022-07-31T03:59:50.214Z,99004.88
2022-07-31T04:02:17.929Z,99004.92
2022-07-31T04:04:49.932Z,99006.20
2022-07-31T04:07:16.614Z,99009.00
2022-07-31T04:09:50.087Z,99008.55
2022-07-31T04:12:20.619Z,99008.02
2022-07-31T04:14:47.972Z,99007.84
2022-07-31T04:17:14.626Z,99009.25
2022-07-31T04:19:44.060Z,99007.06
2022-07-31T04:22:10.840Z,99009.52
2022-07-31T04:24:38.190Z,99008.77
2022-07-31T04:27:47.847Z,99010.09
2022-07-31T04:30:17.656Z,99009.63
2022-07-31T04:32:44.768Z,99012.30
2022-07-31T04:35:14.613Z,99007.11
2022-07-31T04:37:41.085Z,99007.65
2022-07-31T04:40:16.577Z,99006.89
2022-07-31T04:42:43.916Z,99004.50
2022-07-31T04:45:10.371Z,99004.20
2022-07-31T04:47:37.651Z,99001.66
2022-07-31T04:50:07.449Z,99000.63
2022-07-31T04:52:34.498Z,99000.62
2022-07-31T04:55:08.261Z,99004.95
2022-07-31T04:57:34.976Z,98997.84
2022-07-31T05:00:01.758Z,99003.34
2022-07-31T05:02:31.928Z,99000.70
2022-07-31T05:04:58.417Z,99003.47
2022-07-31T05:07:31.285Z,99000.79
2022-07-31T05:10:00.884Z,99002.98
2022-07-31T05:12:28.107Z,99002.73
2022-07-31T05:14:55.510Z,99007.51
2022-07-31T05:17:22.431Z,99007.05
2022-07-31T05:20:13.357Z,99012.22
2022-07-31T05:22:57.105Z,99013.16
2022-07-31T05:25:39.765Z,99011.52
2022-07-31T05:28:09.787Z,99010.29
2022-07-31T05:30:36.546Z,99007.33
2022-07-31T05:33:04.801Z,99010.69
2022-07-31T05:35:31.262Z,99002.58
2022-07-31T05:37:57.768Z,99003.81
2022-07-31T05:40:40.217Z,98999.15
2022-07-31T05:43:25.293Z,99000.77
2022-07-31T05:46:16.764Z,99001.36
2022-07-31T05:48:44.356Z,99001.31
2022-07-31T05:51:12.662Z,99004.86
2022-07-31T05:53:40.403Z,99001.30
2022-07-31T05:56:30.515Z,98999.88
2022-07-31T05:58:59.748Z,98998.67
2022-07-31T06:01:26.191Z,98997.00
2022-07-31T06:03:53.331Z,98996.30
2022-07-31T06:06:24.222Z,98990.12
2022-07-31T06:08:50.770Z,98989.71
2022-07-31T06:11:23.191Z,98989.64
2022-07-31T06:13:54.923Z,98992.58
2022-07-31T06:16:28.296Z,98987.13
2022-07-31T06:18:54.847Z,98987.20
2022-07-31T06:23:48.366Z,98984.54
2022-07-31T06:26:22.286Z,98987.02
2022-07-31T06:28:52.494Z,98984.60
2022-07-31T06:31:20.738Z,98988.58
2022-07-31T06:33:48.861Z,98987.18
2022-07-31T06:36:17.608Z,98992.05
2022-07-31T06:38:56.882Z,98996.90
2022-07-31T06:41:46.050Z,98996.36
2022-07-31T06:44:28.817Z,98990.77
2022-07-31T06:47:30.659Z,98992.04
2022-07-31T06:50:16.035Z,98992.73
2022-07-31T06:52:52.503Z,98993.11
2022-07-31T06:55:20.828Z,98999.38
2022-07-31T06:57:47.710Z,98998.13
2022-07-31T07:00:20.382Z,98999.04
2022-07-31T07:02:48.238Z,98996.73
2022-07-31T07:05:15.596Z,99001.16
2022-07-31T07:07:42.253Z,99002.30
2022-07-31T07:10:09.964Z,99002.02
2022-07-31T07:13:02.386Z,99005.67
2022-07-31T07:15:37.925Z,99007.78
2022-07-31T07:18:06.574Z,99007.20
2022-07-31T07:20:36.725Z,99004.64
2022-07-31T07:23:03.377Z,99000.90
2022-07-31T07:25:47.160Z,98999.35
2022-07-31T07:28:30.960Z,99009.98
2022-07-31T07:31:03.212Z,99008.89
2022-07-31T07:33:41.584Z,99007.67
2022-07-31T07:36:22.300Z,99010.23
2022-07-31T07:38:55.618Z,99006.65
2022-07-31T07:41:25.977Z,99003.77
2022-07-31T07:43:53.127Z,98996.38
2022-07-31T07:46:23.757Z,99003.63
2022-07-31T07:48:53.409Z,99003.14
2022-07-31T07:51:34.453Z,99005.09
2022-07-31T07:54:15.108Z,99003.92
2022-07-31T07:57:21.148Z,98998.34
2022-07-31T08:00:10.271Z,98998.70
2022-07-31T08:03:46.600Z,98995.82
2022-07-31T08:05:40.375Z,99000.02
2022-07-31T08:08:06.956Z,98992.35
2022-07-31T08:10:48.559Z,98984.23
2022-07-31T08:13:21.582Z,98999.36
2022-07-31T08:15:53.986Z,99001.88
2022-07-31T08:18:27.311Z,99001.27
2022-07-31T08:20:55.507Z,98994.87
2022-07-31T08:23:22.045Z,98996.66
2022-07-31T08:25:49.368Z,99001.63
2022-07-31T08:28:23.951Z,99008.52
2022-07-31T08:30:51.263Z,98998.11
2022-07-31T08:33:20.214Z,98996.26
2022-07-31T08:35:54.100Z,99004.40
2022-07-31T08:38:20.798Z,99003.17
2022-07-31T08:41:02.906Z,99005.69
2022-07-31T08:44:02.807Z,99002.38
2022-07-31T08:46:19.262Z,98994.20
2022-07-31T08:48:49.921Z,98996.60
2022-07-31T08:51:17.873Z,99000.08
2022-07-31T08:54:08.388Z,98992.23
2022-07-31T08:56:36.058Z,98986.19
2022-07-31T08:59:04.704Z,98984.80
2022-07-31T09:01:36.472Z,98989.70
2022-07-31T09:04:04.815Z,98997.39
2022-07-31T09:06:32.091Z,98994.86
2022-07-31T09:08:58.646Z,98993.83
2022-07-31T09:11:25.158Z,98988.84
2022-07-31T09:14:03.017Z,98990.35
2022-07-31T09:16:49.713Z,98992.24
2022-07-31T09:19:53.461Z,98998.92
2022-07-31T09:22:26.409Z,98991.61
2022-07-31T09:24:54.238Z,98999.02
2022-07-31T09:27:27.954Z,98989.00
2022-07-31T09:29:56.967Z,98991.30
2022-07-31T09:32:35.297Z,98981.16
2022-07-31T09:35:12.272Z,98982.00
2022-07-31T09:37:39.629Z,98976.11
2022-07-31T09:40:34.224Z,98983.82
2022-07-31T09:43:04.284Z,98983.08
2022-07-31T09:45:33.057Z,98975.56
2022-07-31T09:48:12.540Z,98974.42
2022-07-31T09:50:59.068Z,98970.65
2022-07-31T09:53:43.005Z,98968.38
2022-07-31T09:56:31.753Z,98962.45
2022-07-31T09:58:58.689Z,98976.02
2022-07-31T10:01:26.168Z,98961.34
2022-07-31T10:03:59.309Z,98962.46
2022-07-31T10:06:27.135Z,98971.19
2022-07-31T10:08:56.145Z,98970.10
2022-07-31T10:11:27.393Z,98973.48
2022-07-31T10:14:16.070Z,98974.50
2022-07-31T10:16:48.500Z,98966.50
2022-07-31T10:19:37.483Z,98963.91
2022-07-31T10:22:30.144Z,98962.60
2022-07-31T10:25:00.817Z,98966.94
2022-07-31T10:27:29.307Z,98969.16
2022-07-31T10:30:07.145Z,98964.23
2022-07-31T10:32:37.227Z,98969.73
2022-07-31T10:35:22.534Z,98958.69
2022-07-31T10:38:18.871Z,98961.55
2022-07-31T10:41:17.249Z,98954.52
2022-07-31T10:43:50.073Z,98955.95
2022-07-31T10:46:36.332Z,98946.44
2022-07-31T10:49:40.712Z,98966.23
2022-07-31T10:52:27.191Z,98954.88
2022-07-31T10:55:01.786Z,98959.95
2022-07-31T10:57:56.203Z,98950.16
2022-07-31T11:00:43.305Z,98942.27
2022-07-31T11:03:21.305Z,98947.29
2022-07-31T11:06:06.877Z,98952.73
2022-07-31T11:08:54.216Z,98955.58
2022-07-31T11:11:48.998Z,98952.52
2022-07-31T11:14:39.088Z,98950.25
2022-07-31T11:18:22.149Z,98954.70
2022-07-31T11:20:42.698Z,98944.15
2022-07-31T11:23:14.583Z,98938.95
2022-07-31T11:25:41.410Z,98959.61
2022-07-31T11:28:18.258Z,98947.65
2022-07-31T11:30:52.825Z,98945.96
2022-07-31T11:33:42.133Z,98943.61
2022-07-31T11:36:15.393Z,98958.69
2022-07-31T11:38:47.517Z,98954.02
2022-07-31T11:41:16.587Z,98949.11
2022-07-31T11:43:46.176Z,98943.38
2022-07-31T11:46:18.666Z,98948.58
2022-07-31T11:48:45.841Z,98943.52
2022-07-31T11:51:19.702Z,98944.35
2022-07-31T11:53:51.155Z,98946.72
2022-07-31T11:56:26.699Z,98942.23
2022-07-31T11:58:55.949Z,98941.45
2022-07-31T12:01:28.609Z,98947.52
2022-07-31T12:03:57.009Z,98947.05
2022-07-31T12:06:23.857Z,98941.17
2022-07-31T12:08:53.413Z,98935.41
2022-07-31T12:11:20.826Z,98933.38
2022-07-31T12:13:48.590Z,98928.71
2022-07-31T12:16:15.896Z,98927.73
2022-07-31T12:18:50.037Z,98940.58
2022-07-31T12:21:17.733Z,98939.98
2022-07-31T12:23:51.233Z,98939.64
2022-07-31T12:26:26.488Z,98937.34
2022-07-31T12:29:00.770Z,98935.88
2022-07-31T12:31:28.425Z,98934.23
2022-07-31T12:33:55.324Z,98928.67
2022-07-31T12:36:21.817Z,98932.11
2022-07-31T12:38:59.887Z,98931.23
2022-07-31T12:41:27.900Z,98924.06
2022-07-31T12:43:55.032Z,98935.70
2022-07-31T12:46:37.161Z,98930.98
2022-07-31T12:49:04.989Z,98930.16
2022-07-31T12:51:45.206Z,98924.19
2022-07-31T12:54:15.450Z,98921.45
2022-07-31T12:56:43.004Z,98922.75
2022-07-31T12:59:11.604Z,98921.04
2022-07-31T13:01:38.598Z,98914.03
2022-07-31T13:04:08.051Z,98906.46
2022-07-31T13:06:48.153Z,98910.13
2022-07-31T13:09:14.610Z,98904.20
2022-07-31T13:11:46.495Z,98903.45
2022-07-31T13:14:16.358Z,98914.38
2022-07-31T13:16:44.465Z,98911.36
2022-07-31T13:19:11.029Z,98897.84
2022-07-31T13:21:49.347Z,98897.81
2022-07-31T13:24:19.095Z,98888.08
2022-07-31T13:26:46.938Z,98877.13
2022-07-31T13:29:13.555Z,98883.38
2022-07-31T13:31:41.268Z,98883.64
2022-07-31T13:34:07.785Z,98887.16
2022-07-31T13:36:39.324Z,98888.73
2022-07-31T13:39:07.364Z,98886.37
2022-07-31T13:41:34.846Z,98876.71
2022-07-31T13:44:03.002Z,98874.80
2022-07-31T13:46:31.073Z,98876.21
2022-07-31T13:48:58.903Z,98871.98
2022-07-31T13:51:28.852Z,98868.84
2022-07-31T13:53:56.187Z,98868.58
2022-07-31T13:56:39.469Z,98858.18
2022-07-31T13:59:13.151Z,98861.61
2022-07-31T14:02:03.781Z,98862.67
2022-07-31T14:04:32.475Z,98861.61
2022-07-31T14:07:06.049Z,98862.13
2022-07-31T14:09:34.187Z,98866.27
2022-07-31T14:12:04.624Z,98866.19
2022-07-31T14:14:31.673Z,98860.48
2022-07-31T14:16:58.092Z,98858.96
2022-07-31T14:19:24.528Z,98851.52
2022-07-31T14:21:57.075Z,98850.63
2022-07-31T14:24:25.495Z,98848.82
2022-07-31T14:26:52.417Z,98849.68
2022-07-31T14:29:19.402Z,98856.08
2022-07-31T14:31:46.193Z,98859.84
2022-07-31T14:34:12.604Z,98856.61
2022-07-31T14:36:39.151Z,98855.55
2022-07-31T14:39:05.617Z,98853.37
2022-07-31T14:41:32.153Z,98850.18
2022-07-31T14:43:59.208Z,98849.24
2022-07-31T14:46:26.857Z,98844.45
2022-07-31T14:48:53.269Z,98847.05
2022-07-31T14:51:19.821Z,98848.95
2022-07-31T14:53:49.265Z,98842.73
2022-07-31T14:56:23.424Z,98853.52
2022-07-31T14:59:01.157Z,98844.23
2022-07-31T15:01:30.681Z,98850.08
2022-07-31T15:03:57.956Z,98840.58
2022-07-31T15:06:41.630Z,98842.85
2022-07-31T15:09:12.757Z,98850.11
2022-07-31T15:11:59.365Z,98846.35
2022-07-31T15:14:29.521Z,98844.11
2022-07-31T15:16:56.665Z,98838.98
2022-07-31T15:19:23.241Z,98834.91
2022-07-31T15:22:10.990Z,98835.60
2022-07-31T15:24:38.514Z,98837.61
2022-07-31T15:27:08.047Z,98838.23
2022-07-31T15:30:05.159Z,98840.09
2022-07-31T15:32:22.189Z,98828.56
2022-07-31T15:34:48.539Z,98837.34
2022-07-31T15:37:19.891Z,98836.69
2022-07-31T15:40:01.594Z,98836.77
2022-07-31T15:42:31.602Z,98835.59
2022-07-31T15:44:58.101Z,98835.31
2022-07-31T15:47:24.707Z,98825.92
2022-07-31T15:49:51.232Z,98825.81
2022-07-31T15:52:19.407Z,98831.02
2022-07-31T15:54:46.623Z,98831.56
2022-07-31T15:57:13.307Z,98828.23
2022-07-31T15:59:39.696Z,98825.73
2022-07-31T16:02:06.311Z,98828.20
2022-07-31T16:04:34.131Z,98824.04
2022-07-31T16:08:29.178Z,98822.45
2022-07-31T16:10:02.682Z,98829.71
2022-07-31T16:12:34.619Z,98820.61
2022-07-31T16:15:01.841Z,98818.83
2022-07-31T16:17:37.184Z,98826.52
2022-07-31T16:20:12.415Z,98820.80
2022-07-31T16:22:40.606Z,98818.66
2022-07-31T16:25:09.400Z,98822.17
2022-07-31T16:27:38.496Z,98817.24
2022-07-31T16:30:06.815Z,98817.55
2022-07-31T16:32:33.519Z,98815.70
2022-07-31T16:35:01.526Z,98813.58
2022-07-31T16:37:50.361Z,98815.30
2022-07-31T16:40:29.808Z,98810.44
2022-07-31T16:43:00.971Z,98811.64
2022-07-31T16:45:29.386Z,98810.30
2022-07-31T16:47:56.558Z,98806.25
2022-07-31T16:50:23.396Z,98810.02
2022-07-31T16:52:54.175Z,98807.66
2022-07-31T16:55:51.784Z,98809.34
2022-07-31T16:58:10.892Z,98809.02
2022-07-31T17:00:38.916Z,98808.29
2022-07-31T17:03:05.825Z,98811.63
2022-07-31T17:05:32.306Z,98812.16
2022-07-31T17:07:58.921Z,98811.71
2022-07-31T17:10:27.008Z,98816.13
2022-07-31T17:12:54.007Z,98817.32
2022-07-31T17:15:20.802Z,98811.79
2022-07-31T17:17:47.541Z,98813.83
2022-07-31T17:20:14.951Z,98809.02
2022-07-31T17:22:41.792Z,98808.30
2022-07-31T17:25:10.827Z,98809.55
2022-07-31T17:27:40.004Z,98810.23
2022-07-31T17:30:09.355Z,98809.79
2022-07-31T17:32:38.883Z,98808.63
2022-07-31T17:35:06.343Z,98813.95
2022-07-31T17:37:32.740Z,98813.45
2022-07-31T17:39:59.222Z,98811.86
2022-07-31T17:42:27.957Z,98814.11
2022-07-31T17:44:55.906Z,98816.80
2022-07-31T17:47:25.295Z,98818.27
2022-07-31T17:49:52.935Z,98820.21
2022-07-31T17:52:20.374Z,98822.80
2022-07-31T17:54:48.158Z,98831.73
2022-07-31T17:57:14.854Z,98828.86
2022-07-31T17:59:42.139Z,98826.75
2022-07-31T18:02:09.528Z,98827.35
2022-07-31T18:04:37.183Z,98830.21
2022-07-31T18:07:05.834Z,98830.73
2022-07-31T18:09:33.502Z,98837.08
2022-07-31T18:12:01.231Z,98840.17
2022-07-31T18:14:29.138Z,98846.16
2022-07-31T18:16:55.610Z,98843.05
2022-07-31T18:19:22.515Z,98849.14
2022-07-31T18:21:50.601Z,98844.56
2022-07-31T18:24:17.456Z,98845.33
2022-07-31T18:26:43.981Z,98844.92
2022-07-31T18:29:10.405Z,98848.81
2022-07-31T18:31:37.465Z,98848.52
2022-07-31T18:34:06.297Z,98851.45
2022-07-31T18:36:33.857Z,98853.52
2022-07-31T18:39:00.852Z,98854.35
2022-07-31T18:41:27.380Z,98857.21
2022-07-31T18:43:54.453Z,98859.34
2022-07-31T18:46:23.003Z,98861.65
2022-07-31T18:48:55.036Z,98862.83
2022-07-31T18:51:23.917Z,98867.13
2022-07-31T18:53:51.252Z,98871.42
2022-07-31T18:56:17.850Z,98869.95
2022-07-31T18:58:44.380Z,98874.84
2022-07-31T19:01:11.280Z,98873.09
2022-07-31T19:03:37.877Z,98873.17
2022-07-31T19:06:05.577Z,98873.66
2022-07-31T19:08:35.095Z,98871.44
2022-07-31T19:11:02.587Z,98875.56
2022-07-31T19:13:29.287Z,98872.51
2022-07-31T19:15:56.200Z,98876.42
2022-07-31T19:18:28.094Z,98877.58
2022-07-31T19:21:19.123Z,98881.61
2022-07-31T19:23:43.582Z,98883.02
2022-07-31T19:26:11.273Z,98881.67
2022-07-31T19:28:39.079Z,98885.24
2022-07-31T19:31:06.564Z,98887.05
2022-07-31T19:33:34.333Z,98890.15
2022-07-31T19:36:03.232Z,98888.71
2022-07-31T19:38:31.862Z,98899.36
2022-07-31T19:40:59.061Z,98897.77
2022-07-31T19:43:25.594Z,98898.30
2022-07-31T19:45:58.777Z,98895.98
2022-07-31T19:48:40.237Z,98894.85
2022-07-31T19:51:06.862Z,98893.58
2022-07-31T19:53:35.672Z,98889.77
2022-07-31T19:56:04.874Z,98890.68
2022-07-31T19:58:34.008Z,98890.66
2022-07-31T20:01:00.951Z,98887.59
2022-07-31T20:03:27.431Z,98885.86
2022-07-31T20:05:55.842Z,98882.55
2022-07-31T20:08:23.181Z,98882.88
2022-07-31T20:10:50.037Z,98880.96
2022-07-31T20:13:18.940Z,98883.20
2022-07-31T20:15:52.442Z,98882.05
2022-07-31T20:18:27.250Z,98882.10
2022-07-31T20:21:06.393Z,98882.09
2022-07-31T20:23:36.096Z,98877.68
2022-07-31T20:26:08.527Z,98874.42
2022-07-31T20:28:36.129Z,98872.91
2022-07-31T20:31:02.856Z,98873.52
2022-07-31T20:33:30.545Z,98871.34
2022-07-31T20:35:58.379Z,98870.45
2022-07-31T20:38:25.228Z,98870.73
2022-07-31T20:40:55.461Z,98867.23
2022-07-31T20:43:23.872Z,98869.10
2022-07-31T20:45:50.916Z,98867.52
2022-07-31T20:48:17.952Z,98872.02
2022-07-31T20:50:48.028Z,98870.69
2022-07-31T20:53:16.235Z,98871.36
2022-07-31T20:55:48.498Z,98873.45
2022-07-31T20:58:15.941Z,98874.15
2022-07-31T21:00:43.172Z,98874.13
2022-07-31T21:03:10.205Z,98869.34
2022-07-31T21:05:38.677Z,98868.17
2022-07-31T21:08:05.213Z,98865.23
2022-07-31T21:10:34.353Z,98863.58
2022-07-31T21:13:01.107Z,98865.70
2022-07-31T21:15:44.095Z,98866.02
2022-07-31T21:18:16.303Z,98863.67
2022-07-31T21:20:52.177Z,98863.36
2022-07-31T21:23:24.988Z,98863.20
2022-07-31T21:25:53.759Z,98864.26
2022-07-31T21:28:21.932Z,98863.20
2022-07-31T21:30:49.529Z,98864.16
2022-07-31T21:33:17.336Z,98861.05
2022-07-31T21:35:44.401Z,98860.61
2022-07-31T21:38:11.900Z,98857.80
2022-07-31T21:40:39.689Z,98853.58
2022-07-31T21:43:06.629Z,98852.13
2022-07-31T21:45:43.413Z,98851.73
2022-07-31T21:48:18.733Z,98849.73
2022-07-31T21:50:45.741Z,98850.25
2022-07-31T21:53:13.342Z,98845.88
2022-07-31T21:55:40.623Z,98849.56
2022-07-31T21:58:08.328Z,98848.69
2022-07-31T22:00:35.397Z,98849.81
2022-07-31T22:03:02.987Z,98852.59
2022-07-31T22:05:51.379Z,98852.41
2022-07-31T22:08:18.306Z,98856.47
2022-07-31T22:10:45.240Z,98854.86
2022-07-31T22:13:12.388Z,98854.02
2022-07-31T22:15:58.228Z,98856.14
2022-07-31T22:18:31.510Z,98853.95
2022-07-31T22:20:59.466Z,98851.88
2022-07-31T22:23:26.892Z,98851.46
2022-07-31T22:25:53.866Z,98851.48
2022-07-31T22:28:21.993Z,98850.21
2022-07-31T22:30:48.969Z,98848.89
2022-07-31T22:33:15.532Z,98848.02
2022-07-31T22:35:43.327Z,98843.02
2022-07-31T22:38:12.637Z,98851.41
2022-07-31T22:40:39.767Z,98849.28
2022-07-31T22:44:10.795Z,98849.48
2022-07-31T22:45:59.112Z,98848.55
2022-07-31T22:48:27.208Z,98848.77
2022-07-31T22:50:54.823Z,98850.02
2022-07-31T22:53:21.299Z,98850.78
2022-07-31T22:55:47.807Z,98848.46
2022-07-31T22:58:14.579Z,98849.86
2022-07-31T23:00:41.875Z,98844.95
2022-07-31T23:03:11.502Z,98838.20
2022-07-31T23:06:02.872Z,98839.47
2022-07-31T23:08:24.199Z,98834.03
2022-07-31T23:10:51.030Z,98835.33
2022-07-31T23:13:17.435Z,98841.85
2022-07-31T23:15:44.206Z,98837.82
2022-07-31T23:18:11.249Z,98836.66
2022-07-31T23:20:38.794Z,98837.55
2022-07-31T23:23:05.439Z,98837.42
2022-07-31T23:25:32.827Z,98837.29
2022-07-31T23:27:59.207Z,98835.53
2022-07-31T23:30:26.995Z,98838.55
2022-07-31T23:32:54.845Z,98834.90
2022-07-31T23:35:21.607Z,98833.09
2022-07-31T23:37:49.245Z,98831.35
2022-07-31T23:40:15.804Z,98832.19
2022-07-31T23:42:45.707Z,98830.81
2022-07-31T23:45:15.330Z,98833.54
2022-07-31T23:47:46.215Z,98834.52
2022-07-31T23:50:14.701Z,98833.60
2022-07-31T23:52:44.774Z,98834.37
2022-07-31T23:55:11.674Z,98833.79
2022-07-31T23:57:40.248Z,98831.80
